Time;durP1;ratioP1;P1;durP2;ratioP2;P2;SDS_P1;SDS_P2;PMS_P1;PMS_P2;Temp;Humidity;BMP_temperature;BMP_pressure;BME280_temperature;BME280_humidity;BME280_pressure;Samples;Min_cycle;Max_cycle;Signal;HPM_P1;HPM_P2
2023/09/15 00:00:29;;;;;;;3.65;2.28;;;12.70;99.90;;;;;;5034686;28;20025;-52
2023/09/15 00:02:56;;;;;;;6.30;2.40;;;12.70;99.90;;;;;;5034744;28;20501;-54
2023/09/15 00:05:23;;;;;;;3.80;1.90;;;12.70;99.90;;;;;;5034565;28;20147;-54
2023/09/15 00:07:49;;;;;;;5.38;2.30;;;12.70;99.90;;;;;;5034523;28;20496;-53
2023/09/15 00:10:15;;;;;;;5.97;2.50;;;12.70;99.90;;;;;;5034239;28;20108;-54
2023/09/15 00:12:44;;;;;;;8.90;2.10;;;12.60;99.90;;;;;;5034133;28;20371;-54
2023/09/15 00:15:11;;;;;;;3.67;2.00;;;12.60;99.90;;;;;;5034607;28;20068;-54
2023/09/15 00:17:39;;;;;;;5.85;2.45;;;12.60;99.90;;;;;;5034490;28;20025;-54
2023/09/15 00:20:25;;;;;;;6.78;1.98;;;12.50;99.90;;;;;;5034259;28;20029;-54
2023/09/15 00:22:52;;;;;;;5.35;2.55;;;12.50;99.90;;;;;;5033951;28;20030;-50
2023/09/15 00:25:21;;;;;;;4.13;2.17;;;12.40;99.90;;;;;;5034615;28;20037;-54
2023/09/15 00:27:52;;;;;;;5.05;2.03;;;12.40;99.90;;;;;;5034586;28;20033;-54
2023/09/15 00:30:19;;;;;;;4.30;2.05;;;12.30;99.90;;;;;;5016666;28;20041;-53
2023/09/15 00:32:46;;;;;;;6.07;2.55;;;12.30;99.90;;;;;;5034408;28;20029;-51
2023/09/15 00:35:16;;;;;;;4.10;1.98;;;12.20;99.90;;;;;;5034624;28;20033;-53
2023/09/15 00:37:43;;;;;;;4.18;1.83;;;12.20;99.90;;;;;;5034414;28;20417;-54
2023/09/15 00:40:10;;;;;;;4.15;2.20;;;12.10;99.90;;;;;;5033795;28;20040;-53
2023/09/15 00:42:42;;;;;;;4.25;1.98;;;12.10;99.90;;;;;;5016812;28;20144;-54
2023/09/15 00:45:12;;;;;;;3.95;1.90;;;12.10;99.90;;;;;;5016558;28;20347;-54
2023/09/15 00:47:38;;;;;;;4.43;2.25;;;12.00;99.90;;;;;;5017968;28;20478;-53
2023/09/15 00:50:05;;;;;;;5.25;1.98;;;12.00;99.90;;;;;;5037875;28;20036;-53
2023/09/15 00:52:33;;;;;;;4.75;2.10;;;12.00;99.90;;;;;;5020611;28;20025;-51
2023/09/15 00:55:00;;;;;;;3.58;1.85;;;12.00;99.90;;;;;;5038126;28;20025;-55
2023/09/15 00:57:27;;;;;;;4.43;1.90;;;11.90;99.90;;;;;;5038330;28;20029;-51
2023/09/15 00:59:53;;;;;;;5.93;2.25;;;11.90;99.90;;;;;;5019606;28;20034;-55
2023/09/15 01:02:20;;;;;;;4.72;2.13;;;11.90;99.90;;;;;;5020044;28;20051;-53
2023/09/15 01:04:45;;;;;;;3.80;1.92;;;11.80;99.90;;;;;;5020340;28;20037;-54
2023/09/15 01:07:13;;;;;;;5.35;2.28;;;11.80;99.90;;;;;;5003717;28;20026;-53
2023/09/15 01:09:39;;;;;;;6.57;2.37;;;11.80;99.90;;;;;;5019510;28;20041;-55
2023/09/15 01:12:07;;;;;;;4.07;1.98;;;11.70;99.90;;;;;;5037506;28;20025;-55
2023/09/15 01:14:34;;;;;;;4.43;1.90;;;11.70;99.90;;;;;;5037502;28;20033;-55
2023/09/15 01:17:12;;;;;;;4.30;1.98;;;11.70;99.90;;;;;;5019842;28;20037;-53
2023/09/15 01:20:10;;;;;;;4.93;1.93;;;11.60;99.90;;;;;;5019266;28;20033;-54
2023/09/15 01:23:10;;;;;;;4.55;1.92;;;11.60;99.90;;;;;;5003014;28;20069;-53
2023/09/15 01:25:36;;;;;;;4.53;2.30;;;11.60;99.90;;;;;;5020129;28;20029;-54
2023/09/15 01:28:11;;;;;;;3.57;1.67;;;11.60;99.90;;;;;;5020650;28;20506;-54
2023/09/15 01:30:38;;;;;;;5.27;2.30;;;11.50;99.90;;;;;;5020427;28;20547;-53
2023/09/15 01:33:05;;;;;;;6.07;2.20;;;11.60;99.90;;;;;;5020248;28;20083;-53
2023/09/15 01:35:32;;;;;;;5.77;2.10;;;11.60;99.90;;;;;;5037830;28;20037;-51
2023/09/15 01:37:59;;;;;;;4.17;2.00;;;11.50;99.90;;;;;;5037850;28;20517;-53
2023/09/15 01:40:25;;;;;;;6.97;2.13;;;11.50;99.90;;;;;;5019752;28;20040;-53
2023/09/15 01:42:54;;;;;;;4.87;2.27;;;11.50;99.90;;;;;;5019591;28;20056;-53
2023/09/15 01:45:20;;;;;;;4.60;2.17;;;11.50;99.90;;;;;;5037570;28;20033;-55
2023/09/15 01:47:47;;;;;;;5.50;2.30;;;11.50;99.90;;;;;;5019534;28;20040;-54
2023/09/15 01:50:14;;;;;;;4.00;2.07;;;11.50;99.90;;;;;;5019414;28;20039;-55
2023/09/15 01:52:41;;;;;;;6.77;2.47;;;11.40;99.90;;;;;;5019522;28;20033;-55
2023/09/15 01:55:08;;;;;;;6.07;2.27;;;11.50;99.90;;;;;;5037260;28;20044;-55
2023/09/15 01:57:34;;;;;;;3.83;2.07;;;11.50;99.90;;;;;;5037765;28;20025;-54
2023/09/15 02:00:00;;;;;;;6.63;2.50;;;11.50;99.90;;;;;;5018832;28;20033;-54
2023/09/15 02:02:26;;;;;;;5.23;2.27;;;11.50;99.90;;;;;;5018874;28;20025;-53
2023/09/15 02:04:51;;;;;;;6.10;2.80;;;11.40;99.90;;;;;;5018762;28;20192;-54
2023/09/15 02:07:20;;;;;;;4.95;2.58;;;11.40;99.90;;;;;;5035965;28;20033;-54
2023/09/15 02:09:46;;;;;;;6.50;2.40;;;11.40;99.90;;;;;;5035633;28;20502;-54
2023/09/15 02:12:11;;;;;;;5.33;2.30;;;11.40;99.90;;;;;;5036083;28;20087;-52
2023/09/15 02:14:37;;;;;;;4.40;2.17;;;11.30;99.90;;;;;;5018152;28;20069;-52
2023/09/15 02:17:04;;;;;;;5.53;2.53;;;11.30;99.90;;;;;;5018078;28;20033;-53
2023/09/15 02:19:30;;;;;;;8.77;2.63;;;11.30;99.90;;;;;;5017763;28;20033;-54
2023/09/15 02:21:58;;;;;;;7.10;2.27;;;11.30;99.90;;;;;;5018011;28;20025;-54
2023/09/15 02:24:23;;;;;;;5.37;2.27;;;11.30;99.90;;;;;;5036280;28;20128;-54
2023/09/15 02:26:49;;;;;;;6.40;2.60;;;11.30;99.90;;;;;;5018287;28;20065;-54
2023/09/15 02:29:16;;;;;;;4.90;2.33;;;11.30;99.90;;;;;;5017752;28;20472;-53
2023/09/15 02:31:41;;;;;;;4.70;2.20;;;11.30;99.90;;;;;;5018379;28;20124;-53
2023/09/15 02:34:07;;;;;;;6.80;2.63;;;11.20;99.90;;;;;;5018846;28;20041;-51
2023/09/15 02:36:33;;;;;;;6.37;2.40;;;11.30;99.90;;;;;;5036200;28;20029;-54
2023/09/15 02:38:58;;;;;;;4.57;2.40;;;11.20;99.90;;;;;;5018031;28;20025;-54
2023/09/15 02:41:24;;;;;;;8.77;2.47;;;11.20;99.90;;;;;;5001642;28;20489;-55
2023/09/15 02:43:50;;;;;;;7.30;2.63;;;11.20;99.90;;;;;;5017902;28;20037;-55
2023/09/15 02:46:15;;;;;;;4.83;2.50;;;11.10;99.90;;;;;;5018103;28;20072;-55
2023/09/15 02:48:42;;;;;;;5.87;2.90;;;11.10;99.90;;;;;;5017719;28;20076;-55
2023/09/15 02:51:08;;;;;;;4.60;2.30;;;11.10;99.90;;;;;;5018682;28;20433;-55
2023/09/15 02:53:34;;;;;;;6.27;2.57;;;11.10;99.90;;;;;;5018626;28;20037;-55
2023/09/15 02:56:04;;;;;;;4.00;2.17;;;11.10;99.90;;;;;;5035630;28;20029;-54
2023/09/15 02:58:33;;;;;;;7.13;2.90;;;11.10;99.90;;;;;;5017862;28;20087;-55
2023/09/15 03:00:59;;;;;;;5.33;2.33;;;11.10;99.90;;;;;;5018222;28;20025;-52
2023/09/15 03:03:25;;;;;;;5.53;2.93;;;11.10;99.90;;;;;;5018235;28;20038;-54
2023/09/15 03:06:02;;;;;;;5.93;2.33;;;11.10;99.90;;;;;;5017611;28;20048;-54
2023/09/15 03:08:29;;;;;;;9.38;2.55;;;11.00;99.90;;;;;;5017143;28;20516;-55
2023/09/15 03:10:55;;;;;;;6.67;2.60;;;11.10;99.90;;;;;;5017146;28;20057;-54
2023/09/15 03:13:21;;;;;;;7.37;2.83;;;11.00;99.90;;;;;;5017727;28;20029;-55
2023/09/15 03:15:46;;;;;;;6.10;2.70;;;11.00;99.90;;;;;;5035429;28;20025;-55
2023/09/15 03:18:12;;;;;;;7.00;2.53;;;11.00;99.90;;;;;;5017539;28;20033;-55
2023/09/15 03:20:38;;;;;;;7.97;2.50;;;11.00;99.90;;;;;;5016925;28;20036;-51
2023/09/15 03:23:03;;;;;;;7.83;2.77;;;11.00;99.90;;;;;;5017111;28;20065;-55
2023/09/15 03:25:32;;;;;;;5.63;2.87;;;10.90;99.90;;;;;;5017165;28;20408;-54
2023/09/15 03:27:58;;;;;;;4.83;2.47;;;10.90;99.90;;;;;;5017460;28;20510;-53
2023/09/15 03:30:23;;;;;;;6.33;2.40;;;10.90;99.90;;;;;;5034765;28;20128;-55
2023/09/15 03:32:49;;;;;;;6.37;2.50;;;10.90;99.90;;;;;;5017591;28;20040;-55
2023/09/15 03:35:15;;;;;;;4.90;2.40;;;10.90;99.90;;;;;;5017430;28;20033;-55
2023/09/15 03:37:41;;;;;;;5.90;2.60;;;10.90;99.90;;;;;;5016958;28;20109;-54
2023/09/15 03:40:11;;;;;;;5.10;2.43;;;10.90;99.90;;;;;;5016755;28;20497;-51
2023/09/15 03:42:40;;;;;;;5.40;2.27;;;10.90;99.90;;;;;;5034769;28;20497;-54
2023/09/15 03:45:09;;;;;;;4.65;2.35;;;10.90;99.90;;;;;;5017586;28;20029;-55
2023/09/15 03:47:35;;;;;;;6.63;2.73;;;10.90;99.90;;;;;;5034933;28;20485;-53
2023/09/15 03:50:02;;;;;;;5.83;2.53;;;10.90;99.90;;;;;;5034028;28;20032;-52
2023/09/15 03:52:31;;;;;;;5.10;2.53;;;10.90;99.90;;;;;;5017338;28;20285;-55
2023/09/15 03:55:00;;;;;;;6.23;2.47;;;10.90;99.90;;;;;;5016980;28;20494;-54
2023/09/15 03:57:28;;;;;;;6.77;2.60;;;10.90;99.90;;;;;;5035196;28;20026;-55
2023/09/15 03:59:53;;;;;;;5.53;2.13;;;10.90;99.90;;;;;;5016727;28;20028;-53
2023/09/15 04:02:19;;;;;;;5.10;2.20;;;10.90;99.90;;;;;;5017254;28;20434;-55
2023/09/15 04:04:45;;;;;;;5.27;2.60;;;10.90;99.90;;;;;;5016682;28;20040;-55
2023/09/15 04:07:10;;;;;;;5.87;2.47;;;10.90;99.90;;;;;;5016804;28;20144;-55
2023/09/15 04:09:36;;;;;;;5.33;1.87;;;10.90;99.90;;;;;;5034057;28;20140;-53
2023/09/15 04:12:03;;;;;;;6.50;2.67;;;10.80;99.90;;;;;;5016983;28;20037;-55
2023/09/15 04:14:34;;;;;;;6.93;1.73;;;10.80;99.90;;;;;;5034265;28;20101;-55
2023/09/15 04:17:03;;;;;;;5.90;2.30;;;10.80;99.90;;;;;;5016850;28;20036;-53
2023/09/15 04:19:30;;;;;;;5.10;2.40;;;10.80;99.90;;;;;;5016384;28;20117;-54
2023/09/15 04:21:55;;;;;;;5.33;2.30;;;10.80;99.90;;;;;;5016286;28;20033;-55
2023/09/15 04:24:21;;;;;;;5.03;2.40;;;10.80;99.90;;;;;;5016998;28;20029;-53
2023/09/15 04:26:47;;;;;;;5.67;2.50;;;10.80;99.90;;;;;;5016963;28;20032;-54
2023/09/15 04:29:12;;;;;;;4.63;2.30;;;10.80;99.90;;;;;;5016674;28;20159;-51
2023/09/15 04:31:39;;;;;;;5.97;2.50;;;10.80;99.90;;;;;;5016989;28;20482;-54
2023/09/15 04:34:05;;;;;;;6.20;2.60;;;10.80;99.90;;;;;;5016988;28;20029;-50
2023/09/15 04:36:31;;;;;;;9.20;2.40;;;10.80;99.90;;;;;;5016559;28;20037;-52
2023/09/15 04:38:58;;;;;;;5.47;2.20;;;10.70;99.90;;;;;;5015948;28;20033;-51
2023/09/15 04:41:24;;;;;;;6.17;2.60;;;10.80;99.90;;;;;;5016618;28;20033;-50
2023/09/15 04:43:51;;;;;;;6.10;2.83;;;10.80;99.90;;;;;;5016893;28;20040;-50
2023/09/15 04:46:18;;;;;;;3.67;1.80;;;10.80;99.90;;;;;;5016675;28;20103;-52
2023/09/15 04:48:44;;;;;;;5.93;2.17;;;10.70;99.90;;;;;;5016488;28;20029;-50
2023/09/15 04:51:11;;;;;;;4.90;2.03;;;10.80;99.90;;;;;;5016767;28;20040;-50
2023/09/15 04:53:37;;;;;;;6.73;3.03;;;10.80;99.90;;;;;;5016641;28;20038;-53
2023/09/15 04:56:03;;;;;;;7.57;2.70;;;10.70;99.90;;;;;;5033525;28;20037;-52
2023/09/15 04:58:29;;;;;;;5.30;2.60;;;10.70;99.90;;;;;;5016005;28;20029;-50
2023/09/15 05:01:03;;;;;;;7.37;2.43;;;10.70;99.90;;;;;;5016359;28;20029;-50
2023/09/15 05:03:30;;;;;;;6.20;2.53;;;10.70;99.90;;;;;;5016276;28;20033;-49
2023/09/15 05:05:56;;;;;;;6.10;2.27;;;10.70;99.90;;;;;;5015969;28;20033;-49
2023/09/15 05:08:22;;;;;;;10.30;2.47;;;10.70;99.90;;;;;;5016285;28;20101;-49
2023/09/15 05:10:48;;;;;;;5.83;2.73;;;10.70;99.90;;;;;;5015714;28;20025;-50
2023/09/15 05:13:15;;;;;;;5.87;2.50;;;10.80;99.90;;;;;;5015085;28;20103;-52
2023/09/15 05:15:41;;;;;;;5.10;2.33;;;10.80;99.90;;;;;;5014651;28;20033;-54
2023/09/15 05:18:07;;;;;;;4.43;2.00;;;10.80;99.90;;;;;;5014283;28;20516;-53
2023/09/15 05:20:33;;;;;;;6.43;2.87;;;10.80;99.90;;;;;;5014345;28;20068;-54
2023/09/15 05:23:01;;;;;;;4.73;2.10;;;10.80;99.90;;;;;;5014899;28;20125;-53
2023/09/15 05:25:27;;;;;;;4.70;2.40;;;10.80;99.90;;;;;;5032215;28;20108;-54
2023/09/15 05:27:53;;;;;;;4.03;2.50;;;10.80;99.90;;;;;;5015098;28;20030;-53
2023/09/15 05:30:19;;;;;;;7.27;2.30;;;10.80;99.90;;;;;;5016011;28;20133;-53
2023/09/15 05:32:45;;;;;;;5.17;2.60;;;10.80;99.90;;;;;;5015877;28;20576;-54
2023/09/15 05:35:11;;;;;;;5.60;2.30;;;10.90;99.90;;;;;;5018414;28;20033;-53
2023/09/15 05:37:36;;;;;;;5.70;2.40;;;10.90;99.90;;;;;;5019460;28;20025;-55
2023/09/15 05:40:03;;;;;;;5.57;2.60;;;10.90;99.90;;;;;;5019384;28;20037;-55
2023/09/15 05:42:28;;;;;;;3.80;2.37;;;10.90;99.90;;;;;;5019491;28;20151;-55
2023/09/15 05:44:54;;;;;;;7.73;3.00;;;10.90;99.90;;;;;;5019671;28;20057;-55
2023/09/15 05:47:23;;;;;;;4.80;2.90;;;10.90;99.90;;;;;;5037074;28;20036;-53
2023/09/15 05:49:48;;;;;;;7.55;2.78;;;11.00;99.90;;;;;;5036881;28;20033;-52
2023/09/15 05:52:14;;;;;;;5.57;2.30;;;11.00;99.90;;;;;;5037936;28;20398;-53
2023/09/15 05:54:40;;;;;;;5.37;2.40;;;11.10;99.90;;;;;;5038025;28;20432;-55
2023/09/15 05:57:05;;;;;;;4.73;2.30;;;11.10;99.90;;;;;;5019657;28;20470;-55
2023/09/15 05:59:31;;;;;;;7.37;2.97;;;11.20;99.90;;;;;;5036616;28;20026;-50
2023/09/15 06:01:57;;;;;;;7.03;2.87;;;11.20;99.90;;;;;;5036792;28;20087;-54
2023/09/15 06:04:23;;;;;;;8.10;2.30;;;11.30;99.90;;;;;;5036673;28;20488;-51
2023/09/15 06:06:49;;;;;;;10.30;3.30;;;11.30;99.90;;;;;;5036701;28;20037;-51
2023/09/15 06:09:15;;;;;;;5.77;2.70;;;11.40;99.90;;;;;;5019058;28;20117;-53
2023/09/15 06:11:40;;;;;;;7.60;2.60;;;11.40;99.90;;;;;;5037177;28;20061;-55
2023/09/15 06:14:06;;;;;;;6.97;2.87;;;11.50;99.90;;;;;;5018968;28;20040;-51
2023/09/15 06:16:36;;;;;;;7.20;2.83;;;11.50;99.90;;;;;;5019151;28;20030;-54
2023/09/15 06:19:02;;;;;;;5.30;2.87;;;11.60;99.90;;;;;;5035956;28;20041;-52
2023/09/15 06:21:28;;;;;;;6.93;2.30;;;11.60;99.90;;;;;;5018752;28;20040;-54
2023/09/15 06:23:54;;;;;;;6.30;2.47;;;11.70;99.90;;;;;;5036643;28;20059;-52
2023/09/15 06:26:19;;;;;;;4.63;2.13;;;11.80;99.90;;;;;;5036738;28;20497;-54
2023/09/15 06:28:45;;;;;;;5.40;2.03;;;11.90;99.90;;;;;;5036110;28;20040;-51
2023/09/15 06:31:11;;;;;;;4.72;2.40;;;11.90;99.90;;;;;;5035881;28;20402;-54
2023/09/15 06:33:36;;;;;;;6.97;2.70;;;12.00;99.90;;;;;;5036731;28;20025;-53
2023/09/15 06:36:04;;;;;;;7.50;3.33;;;12.10;99.90;;;;;;5018940;28;20029;-54
2023/09/15 06:38:31;;;;;;;5.07;2.22;;;12.20;99.90;;;;;;5036379;28;20505;-53
2023/09/15 06:40:57;;;;;;;5.38;2.20;;;12.40;99.90;;;;;;5036880;28;20126;-54
2023/09/15 06:43:23;;;;;;;6.13;2.67;;;12.50;99.90;;;;;;5018813;28;20069;-55
2023/09/15 06:45:48;;;;;;;6.45;2.85;;;12.60;99.90;;;;;;5035485;28;20045;-54
2023/09/15 06:48:14;;;;;;;7.57;2.22;;;12.70;99.90;;;;;;5035785;28;20036;-52
2023/09/15 06:50:39;;;;;;;5.18;2.30;;;12.80;99.90;;;;;;5035875;28;20363;-53
2023/09/15 06:53:05;;;;;;;6.88;2.30;;;12.90;99.90;;;;;;5035865;28;20068;-54
2023/09/15 06:55:32;;;;;;;4.80;2.22;;;13.00;99.90;;;;;;5018658;28;20040;-53
2023/09/15 06:57:58;;;;;;;5.38;2.35;;;13.10;99.90;;;;;;5018196;28;20030;-54
2023/09/15 07:00:24;;;;;;;5.30;2.40;;;13.30;99.90;;;;;;5035285;28;20109;-53
2023/09/15 07:02:49;;;;;;;6.30;3.15;;;13.40;99.90;;;;;;5036166;28;20033;-55
2023/09/15 07:05:15;;;;;;;7.18;2.25;;;13.60;99.90;;;;;;5035675;28;20029;-55
2023/09/15 07:07:41;;;;;;;5.32;1.90;;;13.70;99.90;;;;;;5035606;28;20075;-53
2023/09/15 07:10:08;;;;;;;3.58;1.75;;;13.90;99.90;;;;;;5035346;28;20021;-54
2023/09/15 07:12:33;;;;;;;9.30;2.25;;;14.20;99.90;;;;;;5035547;28;20053;-54
2023/09/15 07:15:03;;;;;;;4.15;1.55;;;14.40;99.90;;;;;;5035609;28;20029;-52
2023/09/15 07:17:29;;;;;;;3.95;1.80;;;14.50;99.90;;;;;;5017534;28;20030;-51
2023/09/15 07:19:54;;;;;;;4.78;1.67;;;14.60;99.90;;;;;;5034759;28;20028;-54
2023/09/15 07:22:20;;;;;;;5.70;1.85;;;14.90;99.90;;;;;;5035903;28;20093;-54
2023/09/15 07:24:45;;;;;;;3.80;1.50;;;15.10;99.90;;;;;;5017034;28;20044;-55
2023/09/15 07:27:11;;;;;;;4.63;1.60;;;15.20;99.90;;;;;;5034878;28;20120;-55
2023/09/15 07:29:37;;;;;;;6.78;1.65;;;15.20;99.90;;;;;;5034231;28;20290;-54
2023/09/15 07:32:04;;;;;;;4.15;1.67;;;15.40;99.90;;;;;;5034911;28;20067;-55
2023/09/15 07:34:30;;;;;;;3.97;1.40;;;15.40;99.90;;;;;;5034446;28;20113;-55
2023/09/15 07:36:55;;;;;;;5.15;1.80;;;15.60;99.90;;;;;;5035118;28;20065;-55
2023/09/15 07:39:21;;;;;;;3.33;1.42;;;15.80;99.90;;;;;;5034313;28;20053;-55
2023/09/15 07:41:47;;;;;;;4.70;1.40;;;15.90;99.90;;;;;;5035142;28;20117;-55
2023/09/15 07:44:13;;;;;;;3.58;1.50;;;16.00;99.90;;;;;;5034608;28;20104;-54
2023/09/15 07:46:39;;;;;;;5.55;1.30;;;16.20;99.90;;;;;;5034363;28;20636;-55
2023/09/15 07:49:06;;;;;;;4.40;1.50;;;16.20;99.90;;;;;;5033890;28;20037;-54
2023/09/15 07:51:33;;;;;;;3.13;1.30;;;16.40;99.90;;;;;;5017211;28;20393;-53
2023/09/15 07:53:58;;;;;;;8.55;2.45;;;16.50;99.90;;;;;;5034463;28;20485;-55
2023/09/15 07:56:25;;;;;;;8.55;2.35;;;16.70;99.90;;;;;;5033931;28;20084;-55
2023/09/15 07:58:51;;;;;;;5.68;1.75;;;16.80;99.90;;;;;;5015367;28;20021;-54
2023/09/15 08:01:17;;;;;;;6.38;1.60;;;17.00;99.90;;;;;;5033341;28;20461;-54
2023/09/15 08:03:44;;;;;;;4.90;1.48;;;17.10;99.90;;;;;;5034558;28;20026;-55
2023/09/15 08:06:10;;;;;;;8.38;1.70;;;17.30;99.90;;;;;;5034715;28;20040;-55
2023/09/15 08:08:36;;;;;;;3.22;1.45;;;17.30;99.90;;;;;;5035315;28;20037;-52
2023/09/15 08:11:02;;;;;;;4.97;1.50;;;17.50;99.90;;;;;;5035355;28;20033;-54
2023/09/15 08:13:28;;;;;;;5.10;2.00;;;17.60;99.90;;;;;;5035684;28;20044;-53
2023/09/15 08:15:54;;;;;;;5.72;1.48;;;17.60;99.90;;;;;;5035399;28;20052;-53
2023/09/15 08:18:20;;;;;;;3.75;1.48;;;17.70;99.90;;;;;;5033728;28;20500;-53
2023/09/15 08:20:46;;;;;;;3.80;1.58;;;17.80;99.90;;;;;;5034274;28;20608;-52
2023/09/15 08:23:12;;;;;;;2.53;1.27;;;17.80;99.90;;;;;;5034199;28;20092;-53
2023/09/15 08:25:42;;;;;;;4.53;1.42;;;17.90;99.90;;;;;;5033828;28;20148;-54
2023/09/15 08:28:08;;;;;;;6.15;1.55;;;18.00;99.90;;;;;;5033778;28;20037;-53
2023/09/15 08:30:35;;;;;;;3.38;1.55;;;18.10;99.90;;;;;;5033887;28;20448;-54
2023/09/15 08:33:02;;;;;;;4.28;1.50;;;18.10;99.90;;;;;;5033687;28;20029;-54
2023/09/15 08:35:29;;;;;;;3.45;1.45;;;18.20;99.90;;;;;;5034131;28;20069;-55
2023/09/15 08:37:54;;;;;;;4.15;1.10;;;18.20;99.90;;;;;;5034173;28;20060;-52
2023/09/15 08:40:20;;;;;;;3.10;1.48;;;18.30;99.90;;;;;;5033238;28;20413;-53
2023/09/15 08:42:46;;;;;;;4.53;2.13;;;18.40;99.90;;;;;;5033897;28;20041;-55
2023/09/15 08:45:13;;;;;;;4.60;1.50;;;18.40;99.90;;;;;;5033696;28;20045;-51
2023/09/15 08:47:43;;;;;;;5.68;1.48;;;18.50;99.90;;;;;;5033755;28;20474;-55
2023/09/15 08:50:09;;;;;;;4.50;1.80;;;18.60;99.90;;;;;;5033191;28;20160;-54
2023/09/15 08:52:36;;;;;;;4.18;1.70;;;18.60;99.90;;;;;;5033611;28;20045;-52
2023/09/15 08:55:03;;;;;;;4.45;1.63;;;18.70;99.90;;;;;;5033997;28;20025;-54
2023/09/15 08:57:34;;;;;;;3.47;1.20;;;18.70;99.90;;;;;;5033848;28;20033;-51
2023/09/15 09:00:00;;;;;;;3.55;1.38;;;18.90;99.90;;;;;;5033103;28;20055;-54
2023/09/15 09:02:26;;;;;;;5.68;1.50;;;19.10;99.90;;;;;;5033731;28;20040;-54
2023/09/15 09:04:52;;;;;;;4.15;1.20;;;19.10;99.90;;;;;;5033496;28;20033;-54
2023/09/15 09:07:21;;;;;;;3.75;1.25;;;19.20;99.90;;;;;;5033464;28;20353;-53
2023/09/15 09:09:48;;;;;;;3.03;1.48;;;19.20;99.90;;;;;;5036265;28;20120;-53
2023/09/15 09:12:14;;;;;;;5.28;1.60;;;19.20;99.90;;;;;;5037093;28;20096;-52
2023/09/15 09:14:41;;;;;;;3.33;1.40;;;19.30;99.90;;;;;;5037172;28;20021;-52
2023/09/15 09:17:08;;;;;;;2.83;1.08;;;19.40;99.90;;;;;;5036958;28;20030;-53
2023/09/15 09:19:46;;;;;;;2.75;1.25;;;19.50;99.90;;;;;;5037120;28;20136;-50
2023/09/15 09:22:16;;;;;;;2.77;1.20;;;19.70;99.90;;;;;;5037091;28;20030;-52
2023/09/15 09:24:42;;;;;;;2.85;1.27;;;19.90;99.90;;;;;;5036457;28;20160;-52
2023/09/15 09:27:09;;;;;;;2.35;1.40;;;20.10;99.90;;;;;;5036986;28;20072;-51
2023/09/15 09:29:36;;;;;;;3.83;1.88;;;20.20;99.90;;;;;;5019250;28;20104;-54
2023/09/15 09:32:01;;;;;;;2.90;1.38;;;20.30;99.90;;;;;;5037130;28;20076;-51
2023/09/15 09:34:27;;;;;;;2.63;1.20;;;20.40;99.90;;;;;;5037538;28;20045;-50
2023/09/15 09:36:53;;;;;;;3.78;1.50;;;20.40;99.90;;;;;;5035080;28;20447;-54
2023/09/15 09:39:19;;;;;;;4.15;1.30;;;20.50;99.90;;;;;;5034292;28;20014;-49
2023/09/15 09:41:45;;;;;;;3.03;1.42;;;20.50;99.90;;;;;;5017234;28;20025;-53
2023/09/15 09:44:14;;;;;;;3.28;1.50;;;20.50;99.90;;;;;;5035700;28;20037;-48
2023/09/15 09:46:40;;;;;;;7.93;3.78;;;20.50;99.90;;;;;;5036550;28;20040;-53
2023/09/15 09:49:06;;;;;;;4.43;1.80;;;20.60;99.90;;;;;;5036365;28;20034;-54
2023/09/15 09:51:35;;;;;;;3.20;1.60;;;20.80;99.90;;;;;;5036060;28;20457;-52
2023/09/15 09:54:01;;;;;;;4.18;1.52;;;20.80;99.90;;;;;;5037264;28;20059;-50
2023/09/15 09:56:30;;;;;;;3.92;1.83;;;20.70;99.90;;;;;;5037123;28;20053;-51
2023/09/15 09:59:05;;;;;;;2.65;1.17;;;20.70;99.90;;;;;;5036827;28;20430;-51
2023/09/15 10:01:34;;;;;;;3.75;1.08;;;20.80;99.90;;;;;;5037221;28;20029;-48
2023/09/15 10:04:00;;;;;;;3.08;1.10;;;21.00;99.90;;;;;;5036865;28;20123;-49
2023/09/15 10:06:26;;;;;;;6.53;1.98;;;21.10;99.90;;;;;;5037315;28;20033;-50
2023/09/15 10:08:54;;;;;;;5.50;1.70;;;21.40;99.90;;;;;;5036816;28;20025;-50
2023/09/15 10:11:20;;;;;;;3.05;1.55;;;21.70;99.90;;;;;;5036473;28;20044;-49
2023/09/15 10:13:47;;;;;;;12.98;6.95;;;22.00;99.90;;;;;;5037268;28;20029;-50
2023/09/15 10:16:13;;;;;;;3.20;1.90;;;22.40;99.90;;;;;;5036256;28;20080;-50
2023/09/15 10:18:39;;;;;;;4.63;1.60;;;22.70;99.90;;;;;;5035868;28;20029;-49
2023/09/15 10:21:06;;;;;;;9.07;2.42;;;22.90;99.00;;;;;;5017990;28;20033;-48
2023/09/15 10:23:34;;;;;;;4.90;1.60;;;23.00;99.90;;;;;;5036002;28;20076;-51
2023/09/15 10:26:02;;;;;;;3.20;1.73;;;23.10;98.30;;;;;;5036610;28;20040;-51
2023/09/15 10:28:29;;;;;;;3.20;1.58;;;23.50;98.30;;;;;;5035285;28;20479;-53
2023/09/15 10:30:55;;;;;;;3.17;1.40;;;23.70;98.50;;;;;;5035142;28;20026;-53
2023/09/15 10:33:23;;;;;;;3.78;1.50;;;24.10;97.20;;;;;;5034467;28;20529;-54
2023/09/15 10:35:49;;;;;;;6.53;1.58;;;25.00;96.90;;;;;;5034713;28;20083;-53
2023/09/15 10:38:27;;;;;;;3.05;1.40;;;25.80;95.60;;;;;;5016713;28;20068;-54
2023/09/15 10:40:53;;;;;;;2.80;1.23;;;26.60;93.90;;;;;;5035355;28;20048;-54
2023/09/15 10:43:19;;;;;;;3.92;1.70;;;26.90;93.70;;;;;;5034545;28;20030;-52
2023/09/15 10:46:02;;;;;;;3.83;1.40;;;27.30;91.60;;;;;;5035131;28;20025;-50
2023/09/15 10:48:38;;;;;;;3.17;1.70;;;27.30;92.30;;;;;;5034395;28;20068;-53
2023/09/15 10:51:07;;;;;;;2.60;1.50;;;27.60;90.30;;;;;;5035425;28;20025;-52
2023/09/15 10:53:47;;;;;;;3.92;1.60;;;27.40;90.50;;;;;;5035499;28;20036;-54
2023/09/15 10:56:14;;;;;;;3.38;1.77;;;26.70;91.20;;;;;;5034895;28;20030;-54
2023/09/15 10:58:41;;;;;;;4.40;1.73;;;25.90;91.90;;;;;;5034737;28;20030;-51
2023/09/15 11:01:09;;;;;;;5.90;1.30;;;25.30;92.70;;;;;;5034220;28;20120;-51
2023/09/15 11:03:37;;;;;;;10.02;5.57;;;24.90;93.20;;;;;;5035206;28;20033;-51
2023/09/15 11:06:05;;;;;;;5.05;1.52;;;24.50;93.40;;;;;;5034667;28;20039;-51
2023/09/15 11:08:31;;;;;;;7.03;2.45;;;24.20;93.40;;;;;;5016603;28;20068;-52
2023/09/15 11:11:04;;;;;;;6.13;3.08;;;23.70;95.00;;;;;;5035103;28;20033;-50
2023/09/15 11:13:30;;;;;;;3.38;1.67;;;23.50;95.70;;;;;;5035130;28;20494;-51
2023/09/15 11:15:56;;;;;;;3.28;1.48;;;23.40;96.20;;;;;;5035027;28;20486;-51
2023/09/15 11:18:22;;;;;;;2.85;1.83;;;23.10;97.40;;;;;;5016774;28;20079;-54
2023/09/15 11:20:48;;;;;;;3.08;1.48;;;23.10;97.10;;;;;;5034264;28;20167;-53
2023/09/15 11:23:17;;;;;;;4.30;1.85;;;23.00;97.70;;;;;;5017098;28;20097;-52
2023/09/15 11:25:43;;;;;;;4.38;2.00;;;23.00;97.10;;;;;;5034973;28;20091;-52
2023/09/15 11:28:15;;;;;;;5.90;1.83;;;23.20;96.80;;;;;;5033753;28;20037;-53
2023/09/15 11:30:42;;;;;;;3.05;1.50;;;23.20;96.10;;;;;;5033530;28;20371;-52
2023/09/15 11:33:08;;;;;;;3.13;1.50;;;23.00;96.90;;;;;;5033840;28;20029;-54
2023/09/15 11:35:34;;;;;;;4.88;1.55;;;23.00;96.40;;;;;;5033750;28;20025;-54
2023/09/15 11:38:05;;;;;;;3.78;1.77;;;22.80;97.10;;;;;;5033468;28;20396;-50
2023/09/15 11:40:32;;;;;;;3.53;1.75;;;22.60;97.60;;;;;;5033827;28;20497;-52
2023/09/15 11:43:01;;;;;;;3.63;2.05;;;22.70;97.70;;;;;;5034067;28;20401;-54
2023/09/15 11:45:30;;;;;;;3.95;1.65;;;22.90;96.60;;;;;;5033668;28;20036;-54
2023/09/15 11:47:58;;;;;;;3.67;1.58;;;23.20;95.90;;;;;;5033544;28;20033;-53
2023/09/15 11:50:25;;;;;;;6.18;3.05;;;23.30;95.50;;;;;;5033562;28;20033;-52
2023/09/15 11:52:52;;;;;;;5.32;1.52;;;23.10;96.20;;;;;;5033761;28;20048;-52
2023/09/15 11:55:20;;;;;;;2.90;1.65;;;23.20;95.90;;;;;;5033319;28;20038;-53
2023/09/15 11:57:46;;;;;;;2.30;1.20;;;23.10;96.40;;;;;;5034185;28;20033;-53
2023/09/15 12:00:16;;;;;;;3.75;1.50;;;23.00;96.50;;;;;;5033465;28;20370;-53
2023/09/15 12:02:44;;;;;;;1.92;1.10;;;23.10;96.30;;;;;;5033787;28;20033;-52
2023/09/15 12:05:10;;;;;;;;;;;23.10;95.80;;;;;;5034178;28;20052;-54
2023/09/15 12:07:36;;;;;;;3.17;1.42;;;23.10;95.60;;;;;;5033357;28;19992;-54
2023/09/15 12:10:03;;;;;;;4.68;1.38;;;23.20;96.60;;;;;;5033004;28;20112;-54
2023/09/15 12:12:29;;;;;;;1.58;1.20;;;23.20;96.50;;;;;;5033315;28;20029;-53
2023/09/15 12:15:00;;;;;;;2.33;1.27;;;23.40;96.60;;;;;;5033045;28;20029;-54
2023/09/15 12:17:30;;;;;;;3.00;1.38;;;23.50;96.60;;;;;;5032852;28;20033;-54
2023/09/15 12:19:59;;;;;;;3.08;1.42;;;23.60;95.30;;;;;;5032949;28;20084;-54
2023/09/15 12:22:32;;;;;;;2.95;1.30;;;23.60;95.50;;;;;;5033252;28;20025;-54
2023/09/15 12:24:58;;;;;;;4.50;1.30;;;23.70;95.70;;;;;;5033135;28;20027;-50
2023/09/15 12:27:28;;;;;;;2.20;1.23;;;23.70;95.20;;;;;;5014670;28;20488;-53
2023/09/15 12:29:53;;;;;;;3.75;1.50;;;23.80;95.50;;;;;;5032480;28;20033;-54
2023/09/15 12:32:26;;;;;;;2.63;1.15;;;23.60;94.90;;;;;;5032546;28;20037;-54
2023/09/15 12:34:53;;;;;;;2.45;1.27;;;23.40;96.00;;;;;;5032905;28;20457;-53
2023/09/15 12:37:19;;;;;;;2.80;1.20;;;23.40;96.50;;;;;;5032509;28;20053;-54
2023/09/15 12:39:45;;;;;;;1.33;1.10;;;23.50;95.80;;;;;;5032034;28;20029;-54
2023/09/15 12:42:11;;;;;;;2.05;1.20;;;23.40;95.90;;;;;;5032670;28;20029;-53
2023/09/15 12:44:37;;;;;;;3.10;1.42;;;23.50;94.40;;;;;;5035628;28;20436;-54
2023/09/15 12:47:04;;;;;;;2.65;1.35;;;23.60;94.30;;;;;;5036819;28;20128;-54